sensor_id;sensor_type;location;lat;lon;timestamp;pressure;altitude;pressure_sealevel;temperature;humidity
43691;BME280;29293;52.190;21.226;2023-04-04T00:02:59;101230.20;;;-0.73;94.01
43691;BME280;29293;52.190;21.226;2023-04-04T00:18:06;101221.49;;;-0.96;95.17
43691;BME280;29293;52.190;21.226;2023-04-04T00:33:13;101213.52;;;-1.20;95.81
43691;BME280;29293;52.190;21.226;2023-04-04T00:48:20;101200.52;;;-1.46;99.09
43691;BME280;29293;52.190;21.226;2023-04-04T01:03:29;101191.84;;;-1.68;100.00
43691;BME280;29293;52.190;21.226;2023-04-04T01:18:39;101168.02;;;-1.98;100.00
43691;BME280;29293;52.190;21.226;2023-04-04T01:33:53;101161.74;;;-2.25;100.00
43691;BME280;29293;52.190;21.226;2023-04-04T01:49:00;101156.68;;;-2.49;100.00
43691;BME280;29293;52.190;21.226;2023-04-04T02:04:07;101165.70;;;-2.67;100.00
43691;BME280;29293;52.190;21.226;2023-04-04T02:19:15;101159.85;;;-2.85;100.00
43691;BME280;29293;52.190;21.226;2023-04-04T02:34:24;101168.54;;;-3.01;100.00
43691;BME280;29293;52.190;21.226;2023-04-04T02:49:31;101168.10;;;-3.15;100.00
43691;BME280;29293;52.190;21.226;2023-04-04T03:04:41;101171.75;;;-3.25;100.00
43691;BME280;29293;52.190;21.226;2023-04-04T03:19:47;101169.98;;;-3.37;100.00
43691;BME280;29293;52.190;21.226;2023-04-04T03:34:54;101163.64;;;-3.46;100.00
43691;BME280;29293;52.190;21.226;2023-04-04T03:50:00;101163.02;;;-3.52;100.00
43691;BME280;29293;52.190;21.226;2023-04-04T04:05:08;101166.65;;;-3.58;100.00
43691;BME280;29293;52.190;21.226;2023-04-04T04:20:14;101161.15;;;-3.66;100.00
43691;BME280;29293;52.190;21.226;2023-04-04T04:35:20;101164.51;;;-3.70;100.00
43691;BME280;29293;52.190;21.226;2023-04-04T04:50:27;101159.14;;;-3.60;100.00
43691;BME280;29293;52.190;21.226;2023-04-04T05:05:34;101157.48;;;-3.43;100.00
43691;BME280;29293;52.190;21.226;2023-04-04T05:20:42;101149.38;;;-3.16;100.00
43691;BME280;29293;52.190;21.226;2023-04-04T05:35:49;101147.73;;;-2.73;100.00
43691;BME280;29293;52.190;21.226;2023-04-04T05:50:56;101149.02;;;-2.26;100.00
43691;BME280;29293;52.190;21.226;2023-04-04T06:06:07;101147.77;;;-1.91;100.00
43691;BME280;29293;52.190;21.226;2023-04-04T06:21:14;101149.98;;;-1.40;100.00
43691;BME280;29293;52.190;21.226;2023-04-04T06:36:21;101139.26;;;-1.09;100.00
43691;BME280;29293;52.190;21.226;2023-04-04T06:51:28;101131.42;;;-0.45;100.00
43691;BME280;29293;52.190;21.226;2023-04-04T07:06:35;101125.30;;;0.29;100.00
43691;BME280;29293;52.190;21.226;2023-04-04T07:21:42;101119.08;;;0.93;100.00
43691;BME280;29293;52.190;21.226;2023-04-04T07:36:49;101115.02;;;1.43;95.89
43691;BME280;29293;52.190;21.226;2023-04-04T07:51:55;101101.17;;;1.76;87.61
43691;BME280;29293;52.190;21.226;2023-04-04T08:07:02;101088.59;;;2.38;75.92
43691;BME280;29293;52.190;21.226;2023-04-04T08:22:09;101068.91;;;3.14;70.92
43691;BME280;29293;52.190;21.226;2023-04-04T08:37:19;101066.70;;;2.73;69.60
43691;BME280;29293;52.190;21.226;2023-04-04T08:52:27;101068.37;;;2.34;68.67
43691;BME280;29293;52.190;21.226;2023-04-04T09:07:34;101064.67;;;2.33;67.49
43691;BME280;29293;52.190;21.226;2023-04-04T09:22:44;101050.98;;;2.75;64.54
43691;BME280;29293;52.190;21.226;2023-04-04T09:37:51;101046.98;;;2.91;61.62
43691;BME280;29293;52.190;21.226;2023-04-04T09:52:58;101049.71;;;2.42;59.87
43691;BME280;29293;52.190;21.226;2023-04-04T10:08:15;101050.75;;;2.71;58.88
43691;BME280;29293;52.190;21.226;2023-04-04T10:23:23;101045.06;;;2.93;58.14
43691;BME280;29293;52.190;21.226;2023-04-04T10:38:39;101048.08;;;2.68;55.93
43691;BME280;29293;52.190;21.226;2023-04-04T10:53:47;101037.03;;;2.95;58.23
43691;BME280;29293;52.190;21.226;2023-04-04T11:08:55;101035.92;;;3.32;56.77
43691;BME280;29293;52.190;21.226;2023-04-04T11:24:14;101029.83;;;3.08;56.16
43691;BME280;29293;52.190;21.226;2023-04-04T11:39:26;101024.88;;;2.77;56.71
43691;BME280;29293;52.190;21.226;2023-04-04T11:54:34;101020.17;;;2.71;58.75
43691;BME280;29293;52.190;21.226;2023-04-04T12:09:40;101015.01;;;2.93;58.66
43691;BME280;29293;52.190;21.226;2023-04-04T12:24:47;101013.86;;;2.72;59.12
43691;BME280;29293;52.190;21.226;2023-04-04T12:39:56;101011.12;;;2.73;62.63
43691;BME280;29293;52.190;21.226;2023-04-04T12:55:06;101005.00;;;3.34;61.56
43691;BME280;29293;52.190;21.226;2023-04-04T13:10:15;101000.23;;;2.65;62.15
43691;BME280;29293;52.190;21.226;2023-04-04T13:25:23;101009.05;;;2.09;63.87
43691;BME280;29293;52.190;21.226;2023-04-04T13:40:29;101010.13;;;1.93;65.22
43691;BME280;29293;52.190;21.226;2023-04-04T13:55:36;100996.85;;;2.54;64.01
43691;BME280;29293;52.190;21.226;2023-04-04T14:10:43;100994.06;;;2.88;62.06
43691;BME280;29293;52.190;21.226;2023-04-04T14:25:50;100991.35;;;2.44;61.51
43691;BME280;29293;52.190;21.226;2023-04-04T14:40:58;100983.52;;;2.41;61.09
43691;BME280;29293;52.190;21.226;2023-04-04T14:56:07;100977.23;;;2.55;61.69
43691;BME280;29293;52.190;21.226;2023-04-04T15:11:14;100972.95;;;2.32;61.69
43691;BME280;29293;52.190;21.226;2023-04-04T15:26:21;100970.39;;;1.97;62.23
43691;BME280;29293;52.190;21.226;2023-04-04T15:41:28;100958.89;;;1.96;62.93
43691;BME280;29293;52.190;21.226;2023-04-04T15:56:35;100962.43;;;2.04;63.12
43691;BME280;29293;52.190;21.226;2023-04-04T16:11:42;100964.73;;;1.98;62.62
43691;BME280;29293;52.190;21.226;2023-04-04T16:26:49;100953.80;;;1.92;62.89
43691;BME280;29293;52.190;21.226;2023-04-04T16:41:56;100949.65;;;1.74;62.61
43691;BME280;29293;52.190;21.226;2023-04-04T16:57:05;100960.82;;;1.55;62.72
43691;BME280;29293;52.190;21.226;2023-04-04T17:12:11;100972.68;;;1.37;62.39
43691;BME280;29293;52.190;21.226;2023-04-04T17:27:18;100975.61;;;1.20;63.37
43691;BME280;29293;52.190;21.226;2023-04-04T17:42:25;100983.89;;;1.08;64.62
43691;BME280;29293;52.190;21.226;2023-04-04T17:57:33;100996.44;;;0.91;66.12
43691;BME280;29293;52.190;21.226;2023-04-04T18:12:40;100999.70;;;0.79;66.63
43691;BME280;29293;52.190;21.226;2023-04-04T18:27:48;101017.74;;;0.78;66.31
43691;BME280;29293;52.190;21.226;2023-04-04T18:42:57;101026.16;;;0.66;69.83
43691;BME280;29293;52.190;21.226;2023-04-04T18:58:06;101037.27;;;0.51;73.48
43691;BME280;29293;52.190;21.226;2023-04-04T19:13:14;101033.04;;;0.41;77.27
43691;BME280;29293;52.190;21.226;2023-04-04T19:28:20;101030.23;;;0.23;82.74
43691;BME280;29293;52.190;21.226;2023-04-04T19:43:28;101032.04;;;0.08;87.49
43691;BME280;29293;52.190;21.226;2023-04-04T19:58:34;101029.98;;;-0.02;92.37
43691;BME280;29293;52.190;21.226;2023-04-04T20:13:42;101021.55;;;-0.10;94.88
43691;BME280;29293;52.190;21.226;2023-04-04T20:28:49;101015.52;;;-0.15;96.65
43691;BME280;29293;52.190;21.226;2023-04-04T20:43:58;101013.66;;;-0.23;99.31
43691;BME280;29293;52.190;21.226;2023-04-04T20:59:04;101008.61;;;-0.40;100.00
43691;BME280;29293;52.190;21.226;2023-04-04T21:14:25;101004.55;;;-0.62;100.00
43691;BME280;29293;52.190;21.226;2023-04-04T21:29:36;101007.67;;;-0.95;100.00
43691;BME280;29293;52.190;21.226;2023-04-04T21:44:43;101012.62;;;-1.41;100.00
43691;BME280;29293;52.190;21.226;2023-04-04T21:59:50;101011.17;;;-1.67;100.00
43691;BME280;29293;52.190;21.226;2023-04-04T22:14:57;100998.29;;;-1.95;100.00
43691;BME280;29293;52.190;21.226;2023-04-04T22:30:07;100996.35;;;-2.29;100.00
43691;BME280;29293;52.190;21.226;2023-04-04T22:45:14;101000.83;;;-2.65;100.00
43691;BME280;29293;52.190;21.226;2023-04-04T23:00:22;100998.10;;;-2.92;100.00
43691;BME280;29293;52.190;21.226;2023-04-04T23:15:29;100989.90;;;-3.09;100.00
43691;BME280;29293;52.190;21.226;2023-04-04T23:30:39;100990.48;;;-3.22;100.00
43691;BME280;29293;52.190;21.226;2023-04-04T23:45:45;100973.20;;;-3.33;100.00
